Stena Impression — 2IDH5 — position and weather

sailwx.info

Track history (hours):
 
Tides and Currents Weather Stations Pressure Air Temp Water Temp Dewpoint Dewpoint Depression Visibility Wind Speed Wind Dir Waves Ship Positions

Stena Impression

Last reported at 2018-Jun-13 16:18 UTC. Time now 2018-Jun-18 13:44 UTC.
Position N 09°36' W 079°47'.

Length 183 m; draft 8.5 m.

Type: Ship. MMSI: 235108755.

Date/timePositionNaut miles runAvg speedWind from/ knotsBaromVisibWave heightAir tempDewpointWater temp
2018-Jun-13 16:18N 09°36' W 079°47'3 9.5
2018-Jun-13 15:57N 09°33' W 079°49'4 9.5
2018-Jun-13 15:31N 09°30' W 079°52'510.3
2018-Jun-13 15:01N 09°26' W 079°55'510.0
2018-Jun-13 14:30N 09°21' W 079°55'3 6.9
2018-Jun-13 14:01N 09°17' W 079°55'1 1.7
2018-Jun-13 13:29N 09°17' W 079°55'0 0.7
2018-Jun-13 13:00N 09°16' W 079°55'0 0.5
2018-Jun-13 12:30N 09°16' W 079°55'2 4.0
2018-Jun-13 11:56N 09°14' W 079°55'  
2018-Jun-04 19:39N 09°13' W 079°56'1 4.1
2018-Jun-04 19:29N 09°14' W 079°56'0 0.1
2018-Jun-04 16:44N 09°14' W 079°56'0 0.1
2018-Jun-04 16:23N 09°14' W 079°56'0 0.1
2018-Jun-04 15:53N 09°14' W 079°56'0 0.1
2018-Jun-04 14:41N 09°14' W 079°56'0 0.0
2018-Jun-04 14:29N 09°14' W 079°56'0 0.0
2018-Jun-04 13:56N 09°14' W 079°56'0 0.1
2018-Jun-04 13:29N 09°14' W 079°56'0 0.1
2018-Jun-04 12:53N 09°14' W 079°56'0 0.2
2018-Jun-04 12:29N 09°14' W 079°56'0 0.0
2018-Jun-04 11:56N 09°14' W 079°56'0 0.0
2018-Jun-04 11:23N 09°14' W 079°56'0 0.0
2018-Jun-04 08:59N 09°14' W 079°56'0 0.0
2018-Jun-04 07:47N 09°14' W 079°56'0 0.0
2018-Jun-04 07:26N 09°14' W 079°56'0 0.0
2018-Jun-04 06:20N 09°14' W 079°56'0 0.0
2018-Jun-04 04:26N 09°14' W 079°56'0 0.0
2018-Jun-04 03:17N 09°14' W 079°56'0 0.1
2018-Jun-04 02:59N 09°14' W 079°56'0 0.0
2018-Jun-04 02:29N 09°14' W 079°56'0 0.0
2018-Jun-04 01:20N 09°14' W 079°56'0 0.1
2018-Jun-04 00:47N 09°14' W 079°56'0 0.0
2018-Jun-03 22:26N 09°14' W 079°56'0 0.0
2018-Jun-03 21:59N 09°14' W 079°56'1 1.8
2018-Jun-03 21:30N 09°15' W 079°55'1 2.9
2018-Jun-03 21:00N 09°16' W 079°55'0 0.3
2018-Jun-03 20:29N 09°16' W 079°55'0 0.4
2018-Jun-03 20:00N 09°17' W 079°55'0 0.7
2018-Jun-03 19:30N 09°17' W 079°55'1 2.8
2018-Jun-03 19:00N 09°18' W 079°55'3 6.2
2018-Jun-03 18:30N 09°21' W 079°55'1 2.5
2018-Jun-03 17:59N 09°23' W 079°56'0 0.0
2018-Jun-03 17:29N 09°23' W 079°56'0 0.0
2018-Jun-03 16:59N 09°23' W 079°56'0 0.1
2018-Jun-03 16:29N 09°23' W 079°56'  
Track history (hours):
 
Tides and Currents Weather Stations Pressure Air Temp Water Temp Dewpoint Dewpoint Depression Visibility Wind Speed Wind Dir Waves Ship Positions

Stena Impression

Last reported at 2018-Jun-13 16:18 UTC. Time now 2018-Jun-18 13:44 UTC.
Position N 09°36' W 079°47'.

Length 183 m; draft 8.5 m.

Type: Ship. MMSI: 235108755.

Date/timePositionNaut miles runAvg speedWind from/ knotsBaromVisibWave heightAir tempDewpointWater temp
2018-Jun-13 16:18N 09°36' W 079°47'3 9.5
2018-Jun-13 15:57N 09°33' W 079°49'4 9.5
2018-Jun-13 15:31N 09°30' W 079°52'510.3
2018-Jun-13 15:01N 09°26' W 079°55'510.0
2018-Jun-13 14:30N 09°21' W 079°55'3 6.9
2018-Jun-13 14:01N 09°17' W 079°55'1 1.7
2018-Jun-13 13:29N 09°17' W 079°55'0 0.7
2018-Jun-13 13:00N 09°16' W 079°55'0 0.5
2018-Jun-13 12:30N 09°16' W 079°55'2 4.0
2018-Jun-13 11:56N 09°14' W 079°55'  
2018-Jun-04 19:39N 09°13' W 079°56'1 4.1
2018-Jun-04 19:29N 09°14' W 079°56'0 0.1
2018-Jun-04 16:44N 09°14' W 079°56'0 0.1
2018-Jun-04 16:23N 09°14' W 079°56'0 0.1
2018-Jun-04 15:53N 09°14' W 079°56'0 0.1
2018-Jun-04 14:41N 09°14' W 079°56'0 0.0
2018-Jun-04 14:29N 09°14' W 079°56'0 0.0
2018-Jun-04 13:56N 09°14' W 079°56'0 0.1
2018-Jun-04 13:29N 09°14' W 079°56'0 0.1
2018-Jun-04 12:53N 09°14' W 079°56'0 0.2
2018-Jun-04 12:29N 09°14' W 079°56'0 0.0
2018-Jun-04 11:56N 09°14' W 079°56'0 0.0
2018-Jun-04 11:23N 09°14' W 079°56'0 0.0
2018-Jun-04 08:59N 09°14' W 079°56'0 0.0
2018-Jun-04 07:47N 09°14' W 079°56'0 0.0
2018-Jun-04 07:26N 09°14' W 079°56'0 0.0
2018-Jun-04 06:20N 09°14' W 079°56'0 0.0
2018-Jun-04 04:26N 09°14' W 079°56'0 0.0
2018-Jun-04 03:17N 09°14' W 079°56'0 0.1
2018-Jun-04 02:59N 09°14' W 079°56'0 0.0
2018-Jun-04 02:29N 09°14' W 079°56'0 0.0
2018-Jun-04 01:20N 09°14' W 079°56'0 0.1
2018-Jun-04 00:47N 09°14' W 079°56'0 0.0
2018-Jun-03 22:26N 09°14' W 079°56'0 0.0
2018-Jun-03 21:59N 09°14' W 079°56'1 1.8
2018-Jun-03 21:30N 09°15' W 079°55'1 2.9
2018-Jun-03 21:00N 09°16' W 079°55'0 0.3
2018-Jun-03 20:29N 09°16' W 079°55'0 0.4
2018-Jun-03 20:00N 09°17' W 079°55'0 0.7
2018-Jun-03 19:30N 09°17' W 079°55'1 2.8
2018-Jun-03 19:00N 09°18' W 079°55'3 6.2
2018-Jun-03 18:30N 09°21' W 079°55'1 2.5
2018-Jun-03 17:59N 09°23' W 079°56'0 0.0
2018-Jun-03 17:29N 09°23' W 079°56'0 0.0
2018-Jun-03 16:59N 09°23' W 079°56'0 0.1
2018-Jun-03 16:29N 09°23' W 079°56'  

Dump ship's entire track history